Jericho Center, Vermont
Current Conditions -  °F | °C
As of 12:54 PM on Friday 24 Oct 2014 (Local Time) from KBTV Reporting Station
Overcast Overcast  
Wind Chill: 42°   Ceiling: 1900
Heat Index: 45°   Visibility: 10mi
Dew Point: 40°   Wind: 6mph
Humidity: 82%   Direction: 20°NNE
Pressure: 29.84"   Gusts: NA
Location:  44.4697°N, 72.9617°W
Report Text: KBTV 241654Z 02005KT 10SM OVC019 07/04 A2984 RMK AO2 SLP108 T00720044
Loading
Personal Weather Stations






























Interactive Weather Map
Tropical Storm Tracking
New forecast layout! Learn more

10-Day Weather Forecast

Advertisements
Track Severe Weather on mobile